createdAt,value
2023-04-10T00:02:11.263Z,11.00
2023-04-10T00:04:38.203Z,12.37
2023-04-10T00:07:05.566Z,11.50
2023-04-10T00:09:32.433Z,13.47
2023-04-10T00:11:59.786Z,11.43
2023-04-10T00:14:26.480Z,11.13
2023-04-10T00:16:53.432Z,12.63
2023-04-10T00:19:20.317Z,13.13
2023-04-10T00:21:47.173Z,12.73
2023-04-10T00:24:14.080Z,13.30
2023-04-10T00:26:40.971Z,13.00
2023-04-10T00:29:08.183Z,14.93
2023-04-10T00:31:35.002Z,11.97
2023-04-10T00:34:01.805Z,16.77
2023-04-10T00:36:28.558Z,14.33
2023-04-10T00:38:55.295Z,15.17
2023-04-10T00:41:23.875Z,13.07
2023-04-10T00:43:50.934Z,14.57
2023-04-10T00:46:18.015Z,15.13
2023-04-10T00:48:44.950Z,12.90
2023-04-10T00:51:12.483Z,19.93
2023-04-10T00:53:39.189Z,16.20
2023-04-10T00:56:07.318Z,13.67
2023-04-10T00:58:34.186Z,16.20
2023-04-10T01:01:02.090Z,15.63
2023-04-10T01:03:29.106Z,16.10
2023-04-10T01:06:08.538Z,14.17
2023-04-10T01:09:01.837Z,14.77
2023-04-10T01:11:37.860Z,15.03
2023-04-10T01:14:12.669Z,15.00
2023-04-10T01:16:58.283Z,16.70
2023-04-10T01:20:00.658Z,16.60
2023-04-10T01:23:03.211Z,17.23
2023-04-10T01:25:42.154Z,18.93
2023-04-10T01:28:19.549Z,18.73
2023-04-10T01:30:53.679Z,18.93
2023-04-10T01:33:25.234Z,23.67
2023-04-10T01:35:56.322Z,20.63
2023-04-10T01:38:27.161Z,20.73
2023-04-10T01:40:55.900Z,22.20
2023-04-10T01:43:26.151Z,20.00
2023-04-10T01:45:53.482Z,19.17
2023-04-10T01:48:20.889Z,21.17
2023-04-10T01:50:48.668Z,21.97
2023-04-10T01:53:16.544Z,22.03
2023-04-10T01:55:43.732Z,19.93
2023-04-10T01:58:11.271Z,18.43
2023-04-10T02:00:42.982Z,20.50
2023-04-10T02:03:10.890Z,23.33
2023-04-10T02:06:16.195Z,22.53
2023-04-10T02:08:57.138Z,21.33
2023-04-10T02:11:47.412Z,21.30
2023-04-10T02:14:18.234Z,18.10
2023-04-10T02:16:45.560Z,20.93
2023-04-10T02:19:13.941Z,22.33
2023-04-10T02:21:42.180Z,21.03
2023-04-10T02:24:08.973Z,23.17
2023-04-10T02:26:49.651Z,23.60
2023-04-10T02:29:16.789Z,23.87
2023-04-10T02:31:44.687Z,21.03
2023-04-10T02:34:11.696Z,26.63
2023-04-10T02:36:39.427Z,21.33
2023-04-10T02:39:06.885Z,21.73
2023-04-10T02:41:34.021Z,22.70
2023-04-10T02:44:00.972Z,21.97
2023-04-10T02:46:27.761Z,22.63
2023-04-10T02:48:55.367Z,25.47
2023-04-10T02:51:22.413Z,27.10
2023-04-10T02:53:49.352Z,24.87
2023-04-10T02:56:16.168Z,25.33
2023-04-10T02:58:46.137Z,24.77
2023-04-10T03:01:13.606Z,26.30
2023-04-10T03:03:40.500Z,23.33
2023-04-10T03:06:09.592Z,26.90
2023-04-10T03:08:36.572Z,28.93
2023-04-10T03:11:03.333Z,27.30
2023-04-10T03:13:30.009Z,27.27
2023-04-10T03:15:56.796Z,28.10
2023-04-10T03:18:23.719Z,30.47
2023-04-10T03:20:50.974Z,26.10
2023-04-10T03:23:17.878Z,26.93
2023-04-10T03:25:44.649Z,29.77
2023-04-10T03:28:11.499Z,27.00
2023-04-10T03:30:38.287Z,24.90
2023-04-10T03:33:05.110Z,27.73
2023-04-10T03:35:31.925Z,27.47
2023-04-10T03:37:58.688Z,28.60
2023-04-10T03:40:25.522Z,24.70
2023-04-10T03:42:52.247Z,28.30
2023-04-10T03:45:18.976Z,28.27
2023-04-10T03:47:45.733Z,28.80
2023-04-10T03:50:13.201Z,27.77
2023-04-10T03:52:40.444Z,29.87
2023-04-10T03:55:07.527Z,35.27
2023-04-10T03:57:34.328Z,28.73
2023-04-10T04:00:01.111Z,33.00
2023-04-10T04:02:28.016Z,27.93
2023-04-10T04:04:54.935Z,27.87
2023-04-10T04:07:21.687Z,28.40
2023-04-10T04:09:48.454Z,26.50
2023-04-10T04:12:15.388Z,25.53
2023-04-10T04:14:43.241Z,27.10
2023-04-10T04:17:10.605Z,26.20
2023-04-10T04:19:37.347Z,29.20
2023-04-10T04:22:04.135Z,21.57
2023-04-10T04:24:30.844Z,25.73
2023-04-10T04:26:57.644Z,25.33
2023-04-10T04:29:24.392Z,26.47
2023-04-10T04:31:51.381Z,22.60
2023-04-10T04:34:18.384Z,27.33
2023-04-10T04:36:45.213Z,28.00
2023-04-10T04:39:12.195Z,25.70
2023-04-10T04:41:38.947Z,21.40
2023-04-10T04:44:06.597Z,23.80
2023-04-10T04:46:33.390Z,31.43
2023-04-10T04:49:00.338Z,26.10
2023-04-10T04:51:27.186Z,23.63
2023-04-10T04:53:54.090Z,24.00
2023-04-10T04:56:20.967Z,23.70
2023-04-10T04:58:47.674Z,26.97
2023-04-10T05:01:14.402Z,20.37
2023-04-10T05:03:41.372Z,22.27
2023-04-10T05:06:08.178Z,21.80
2023-04-10T05:08:35.004Z,17.10
2023-04-10T05:11:01.694Z,21.53
2023-04-10T05:13:28.414Z,21.10
2023-04-10T05:15:55.125Z,23.33
2023-04-10T05:18:23.743Z,24.50
2023-04-10T05:20:50.816Z,25.53
2023-04-10T05:23:17.676Z,23.47
2023-04-10T05:25:44.528Z,23.97
2023-04-10T05:28:11.251Z,23.67
2023-04-10T05:30:37.939Z,26.37
2023-04-10T05:33:04.766Z,23.13
2023-04-10T05:35:31.523Z,26.87
2023-04-10T05:37:59.053Z,27.73
2023-04-10T05:40:26.186Z,24.20
2023-04-10T05:42:52.915Z,24.93
2023-04-10T05:45:19.585Z,27.87
2023-04-10T05:47:46.599Z,28.17
2023-04-10T05:50:13.357Z,26.13
2023-04-10T05:52:40.115Z,25.73
2023-04-10T05:55:07.571Z,26.90
2023-04-10T05:57:34.382Z,27.17
2023-04-10T06:00:01.188Z,28.90
2023-04-10T06:02:28.230Z,23.70
2023-04-10T06:04:55.365Z,23.67
2023-04-10T06:07:22.209Z,21.17
2023-04-10T06:09:48.906Z,21.60
2023-04-10T06:12:15.722Z,15.70
2023-04-10T06:14:42.675Z,13.27
2023-04-10T06:17:09.362Z,11.20
2023-04-10T06:19:36.037Z,8.03
2023-04-10T06:22:02.741Z,10.97
2023-04-10T06:24:29.482Z,9.83
2023-04-10T06:26:57.143Z,8.77
2023-04-10T06:29:24.033Z,9.57
2023-04-10T06:31:51.138Z,9.27
2023-04-10T06:34:18.157Z,8.37
2023-04-10T06:36:44.842Z,9.33
2023-04-10T06:39:11.541Z,7.17
2023-04-10T06:41:38.356Z,9.13
2023-04-10T06:44:05.175Z,8.20
2023-04-10T06:46:31.965Z,8.30
2023-04-10T06:48:58.701Z,6.70
2023-04-10T06:51:25.902Z,6.60
2023-04-10T06:53:52.634Z,7.37
2023-04-10T06:56:19.654Z,6.17
2023-04-10T06:58:46.362Z,8.73
2023-04-10T07:01:13.188Z,7.23
2023-04-10T07:03:40.111Z,6.90
2023-04-10T07:06:08.408Z,5.70
2023-04-10T07:08:35.145Z,5.90
2023-04-10T07:11:01.885Z,5.57
2023-04-10T07:13:28.678Z,6.20
2023-04-10T07:15:55.422Z,5.20
2023-04-10T07:18:22.140Z,7.20
2023-04-10T07:20:51.055Z,5.47
2023-04-10T07:23:17.835Z,5.03
2023-04-10T07:25:44.587Z,4.63
2023-04-10T07:28:11.371Z,5.07
2023-04-10T07:30:38.285Z,4.70
2023-04-10T07:33:05.205Z,5.30
2023-04-10T07:35:31.996Z,4.60
2023-04-10T07:37:58.694Z,4.63
2023-04-10T07:40:25.588Z,4.40
2023-04-10T07:42:53.878Z,4.60
2023-04-10T07:45:20.779Z,10.43
2023-04-10T07:47:47.799Z,5.37
2023-04-10T07:50:14.648Z,4.00
2023-04-10T07:52:41.463Z,4.00
2023-04-10T07:55:08.424Z,3.80
2023-04-10T07:57:36.077Z,7.23
2023-04-10T08:00:03.379Z,3.80
2023-04-10T08:02:30.606Z,13.20
2023-04-10T08:04:57.589Z,4.50
2023-04-10T08:07:24.363Z,4.23
2023-04-10T08:09:51.106Z,4.57
2023-04-10T08:12:17.879Z,3.80
2023-04-10T08:14:45.268Z,5.17
2023-04-10T08:17:14.728Z,4.20
2023-04-10T08:19:43.447Z,3.97
2023-04-10T08:22:10.440Z,4.40
2023-04-10T08:24:37.221Z,3.97
2023-04-10T08:27:04.105Z,5.37
2023-04-10T08:29:31.027Z,3.03
2023-04-10T08:32:00.650Z,2.70
2023-04-10T08:34:27.945Z,3.63
2023-04-10T08:36:55.409Z,3.10
2023-04-10T08:39:22.163Z,5.03
2023-04-10T08:41:49.138Z,3.70
2023-04-10T08:44:16.218Z,3.00
2023-04-10T08:46:44.455Z,3.77
2023-04-10T08:49:18.050Z,3.40
2023-04-10T08:51:55.042Z,6.73
2023-04-10T08:54:27.620Z,3.83
2023-04-10T08:56:56.014Z,4.00
2023-04-10T08:59:23.073Z,3.50
2023-04-10T09:01:50.033Z,3.50
2023-04-10T09:04:18.088Z,3.63
2023-04-10T09:06:45.210Z,3.10
2023-04-10T09:09:11.980Z,3.27
2023-04-10T09:11:55.293Z,5.70
2023-04-10T09:14:31.751Z,3.93
2023-04-10T09:17:19.947Z,4.27
2023-04-10T09:19:48.903Z,4.43
2023-04-10T09:22:16.519Z,26.83
2023-04-10T09:24:45.516Z,3.43
2023-04-10T09:27:37.435Z,8.03
2023-04-10T09:30:05.428Z,2.70
2023-04-10T09:32:42.195Z,2.77
2023-04-10T09:35:14.558Z,2.50
2023-04-10T09:37:44.987Z,2.93
2023-04-10T09:40:25.610Z,2.97
2023-04-10T09:42:53.401Z,2.23
2023-04-10T09:45:22.405Z,2.43
2023-04-10T09:48:08.028Z,11.60
2023-04-10T09:50:40.349Z,2.60
2023-04-10T09:53:15.715Z,2.40
2023-04-10T09:55:43.518Z,2.63
2023-04-10T09:58:11.533Z,2.63
2023-04-10T10:00:44.600Z,3.00
2023-04-10T10:03:19.213Z,2.57
2023-04-10T10:05:52.007Z,2.20
2023-04-10T10:08:19.125Z,2.70
2023-04-10T10:10:51.675Z,2.73
2023-04-10T10:13:28.159Z,2.20
2023-04-10T10:16:14.401Z,2.17
2023-04-10T10:18:46.043Z,2.60
2023-04-10T10:21:13.947Z,3.87
2023-04-10T10:23:42.428Z,1.90
2023-04-10T10:26:10.462Z,2.67
2023-04-10T10:28:39.414Z,6.80
2023-04-10T10:31:06.979Z,3.77
2023-04-10T10:33:36.921Z,6.03
2023-04-10T10:36:04.858Z,2.27
2023-04-10T10:38:32.850Z,2.40
2023-04-10T10:41:21.430Z,3.07
2023-04-10T10:44:12.010Z,3.83
2023-04-10T10:46:44.947Z,2.43
2023-04-10T10:49:11.840Z,2.40
2023-04-10T10:51:51.565Z,2.27
2023-04-10T10:54:35.483Z,2.53
2023-04-10T10:57:03.356Z,2.13
2023-04-10T10:59:48.500Z,3.03
2023-04-10T11:02:19.430Z,2.70
2023-04-10T11:04:48.064Z,1.70
2023-04-10T11:07:16.287Z,2.33
2023-04-10T11:09:51.123Z,2.93
2023-04-10T11:12:21.547Z,2.17
2023-04-10T11:15:07.276Z,2.33
2023-04-10T11:17:51.779Z,2.03
2023-04-10T11:20:21.898Z,2.70
2023-04-10T11:23:12.266Z,2.80
2023-04-10T11:25:50.425Z,2.20
2023-04-10T11:28:32.218Z,2.87
2023-04-10T11:31:23.468Z,2.53
2023-04-10T11:34:01.917Z,7.53
2023-04-10T11:36:29.216Z,2.53
2023-04-10T11:39:13.278Z,2.33
2023-04-10T11:41:45.814Z,2.83
2023-04-10T11:44:14.811Z,3.20
2023-04-10T11:46:44.148Z,2.53
2023-04-10T11:49:11.419Z,3.30
2023-04-10T11:51:39.543Z,3.33
2023-04-10T11:54:32.612Z,2.27
2023-04-10T11:57:05.128Z,2.47
2023-04-10T11:59:33.508Z,2.60
2023-04-10T12:02:06.564Z,2.13
2023-04-10T12:04:34.084Z,5.97
2023-04-10T12:07:01.407Z,2.60
2023-04-10T12:09:28.206Z,3.67
2023-04-10T12:12:03.567Z,2.30
2023-04-10T12:14:41.641Z,3.37
2023-04-10T12:17:13.127Z,2.30
2023-04-10T12:19:40.166Z,2.50
2023-04-10T12:22:07.604Z,2.67
2023-04-10T12:24:48.046Z,2.53
2023-04-10T12:27:25.594Z,2.50
2023-04-10T12:29:56.911Z,3.83
2023-04-10T12:32:24.895Z,3.40
2023-04-10T12:34:57.907Z,2.90
2023-04-10T12:37:26.129Z,2.83
2023-04-10T12:39:53.008Z,5.97
2023-04-10T12:42:23.085Z,2.30
2023-04-10T12:44:58.871Z,2.30
2023-04-10T12:47:27.389Z,2.20
2023-04-10T12:50:24.293Z,3.40
2023-04-10T12:53:11.626Z,3.23
2023-04-10T12:55:38.764Z,2.40
2023-04-10T12:58:22.538Z,2.73
2023-04-10T13:00:49.741Z,2.27
2023-04-10T13:03:16.709Z,1.97
2023-04-10T13:05:44.489Z,2.00
2023-04-10T13:08:11.222Z,2.27
2023-04-10T13:16:04.007Z,2.33
2023-04-10T13:18:30.833Z,2.33
2023-04-10T13:20:57.628Z,3.90
2023-04-10T13:23:24.376Z,1.40
2023-04-10T13:25:51.115Z,2.30
2023-04-10T13:28:18.959Z,2.00
2023-04-10T13:30:45.707Z,1.50
2023-04-10T13:33:12.501Z,2.60
2023-04-10T13:35:40.343Z,1.70
2023-04-10T13:38:09.511Z,2.10
2023-04-10T13:40:36.440Z,2.10
2023-04-10T13:43:03.272Z,1.37
2023-04-10T13:45:30.072Z,1.40
2023-04-10T13:47:56.881Z,2.77
2023-04-10T13:50:23.731Z,2.40
2023-04-10T13:52:52.209Z,1.70
2023-04-10T13:55:20.384Z,2.27
2023-04-10T13:57:47.102Z,2.03
2023-04-10T14:00:14.530Z,2.20
2023-04-10T14:02:41.382Z,2.37
2023-04-10T14:05:08.785Z,2.27
2023-04-10T14:07:35.660Z,2.10
2023-04-10T14:10:02.758Z,2.10
2023-04-10T14:12:29.648Z,1.97
2023-04-10T14:14:56.941Z,2.17
2023-04-10T14:17:24.244Z,1.70
2023-04-10T14:19:52.491Z,4.90
2023-04-10T14:22:19.291Z,1.90
2023-04-10T14:24:46.309Z,2.20
2023-04-10T14:27:13.578Z,2.73
2023-04-10T14:29:50.597Z,2.73
2023-04-10T14:32:21.398Z,2.60
2023-04-10T14:34:48.130Z,1.83
2023-04-10T14:37:15.635Z,2.77
2023-04-10T14:39:42.738Z,2.17
2023-04-10T14:42:10.609Z,2.57
2023-04-10T14:44:37.395Z,2.27
2023-04-10T14:47:06.492Z,2.37
2023-04-10T14:49:33.451Z,2.17
2023-04-10T14:52:01.032Z,2.27
2023-04-10T14:54:28.122Z,2.33
2023-04-10T14:56:54.915Z,2.17
2023-04-10T14:59:22.071Z,2.63
2023-04-10T15:01:49.495Z,2.40
2023-04-10T15:04:16.913Z,2.17
2023-04-10T15:06:45.112Z,5.83
2023-04-10T15:09:12.560Z,3.00
2023-04-10T15:11:40.433Z,2.63
2023-04-10T15:14:08.897Z,3.40
2023-04-10T15:16:35.674Z,4.30
2023-04-10T15:19:02.439Z,2.60
2023-04-10T15:21:29.330Z,5.50
2023-04-10T15:23:56.388Z,3.50
2023-04-10T15:26:23.380Z,2.33
2023-04-10T15:28:50.319Z,2.70
2023-04-10T15:31:17.187Z,2.60
2023-04-10T15:33:44.035Z,2.50
2023-04-10T15:36:10.898Z,2.77
2023-04-10T15:38:37.885Z,2.50
2023-04-10T15:41:12.670Z,6.23
2023-04-10T15:43:40.578Z,3.17
2023-04-10T15:46:09.376Z,2.80
2023-04-10T15:48:38.155Z,2.40
2023-04-10T15:51:06.305Z,2.67
2023-04-10T15:53:34.067Z,2.50
2023-04-10T15:56:01.314Z,2.20
2023-04-10T15:58:28.235Z,2.90
2023-04-10T16:00:54.977Z,3.93
2023-04-10T16:03:21.932Z,2.63
2023-04-10T16:05:48.714Z,2.47
2023-04-10T16:08:15.803Z,2.80
2023-04-10T16:10:42.464Z,2.87
2023-04-10T16:13:09.292Z,3.00
2023-04-10T16:15:39.270Z,3.20
2023-04-10T16:18:07.830Z,2.77
2023-04-10T16:20:35.012Z,2.43
2023-04-10T16:23:01.908Z,7.73
2023-04-10T16:25:28.901Z,3.00
2023-04-10T16:27:56.144Z,5.47
2023-04-10T16:30:24.507Z,5.87
2023-04-10T16:32:51.938Z,2.17
2023-04-10T16:35:19.337Z,2.17
2023-04-10T16:37:46.552Z,1.90
2023-04-10T16:40:13.579Z,5.00
2023-04-10T16:42:40.784Z,1.40
2023-04-10T16:45:08.593Z,1.93
2023-04-10T16:47:35.640Z,1.67
2023-04-10T16:50:02.772Z,2.23
2023-04-10T16:52:29.567Z,1.87
2023-04-10T16:54:56.309Z,3.20
2023-04-10T16:57:23.105Z,1.60
2023-04-10T16:59:49.927Z,3.10
2023-04-10T17:02:16.646Z,2.40
2023-04-10T17:04:43.434Z,2.23
2023-04-10T17:07:10.147Z,1.90
2023-04-10T17:09:37.832Z,2.37
2023-04-10T17:12:04.817Z,1.60
2023-04-10T17:14:31.624Z,2.77
2023-04-10T17:16:58.419Z,2.73
2023-04-10T17:19:25.201Z,4.17
2023-04-10T17:21:52.331Z,3.00
2023-04-10T17:24:19.117Z,3.57
2023-04-10T17:26:45.850Z,2.23
2023-04-10T17:29:12.605Z,5.10
2023-04-10T17:31:39.466Z,3.90
2023-04-10T17:34:06.518Z,2.80
2023-04-10T17:36:33.364Z,3.00
2023-04-10T17:39:00.939Z,3.60
2023-04-10T17:41:27.786Z,1.97
2023-04-10T17:43:54.596Z,2.50
2023-04-10T17:46:21.623Z,2.40
2023-04-10T17:48:48.531Z,2.67
2023-04-10T17:51:15.338Z,2.80
2023-04-10T17:53:42.094Z,2.50
2023-04-10T17:56:16.887Z,2.30
2023-04-10T17:58:43.635Z,2.80
2023-04-10T18:01:11.171Z,3.07
2023-04-10T18:03:38.015Z,2.83
2023-04-10T18:06:04.859Z,2.13
2023-04-10T18:08:31.521Z,2.63
2023-04-10T18:10:58.442Z,2.90
2023-04-10T18:13:25.196Z,3.03
2023-04-10T18:15:51.956Z,5.30
2023-04-10T18:18:18.678Z,3.47
2023-04-10T18:20:45.493Z,2.00
2023-04-10T18:23:12.271Z,2.17
2023-04-10T18:25:38.969Z,2.50
2023-04-10T18:28:14.553Z,3.70
2023-04-10T18:30:42.288Z,3.00
2023-04-10T18:33:11.110Z,4.20
2023-04-10T18:35:38.526Z,6.27
2023-04-10T18:38:05.347Z,3.37
2023-04-10T18:40:34.448Z,2.90
2023-04-10T18:43:01.196Z,7.60
2023-04-10T18:45:27.909Z,3.60
2023-04-10T18:47:54.723Z,3.33
2023-04-10T18:50:21.413Z,3.40
2023-04-10T18:52:48.196Z,3.17
2023-04-10T18:55:14.993Z,2.50
2023-04-10T18:57:41.798Z,2.50
2023-04-10T19:00:11.366Z,2.50
2023-04-10T19:02:38.192Z,2.73
2023-04-10T19:05:05.378Z,2.83
2023-04-10T19:07:32.684Z,3.27
2023-04-10T19:09:59.578Z,2.30
2023-04-10T19:12:26.276Z,3.33
2023-04-10T19:14:52.929Z,3.30
2023-04-10T19:17:21.753Z,3.13
2023-04-10T19:19:48.738Z,3.57
2023-04-10T19:22:16.402Z,2.53
2023-04-10T19:24:43.148Z,3.13
2023-04-10T19:27:09.945Z,3.20
2023-04-10T19:29:36.693Z,3.43
2023-04-10T19:32:03.843Z,8.10
2023-04-10T19:34:30.716Z,3.67
2023-04-10T19:36:57.534Z,4.13
2023-04-10T19:39:24.261Z,4.37
2023-04-10T19:41:51.098Z,3.00
2023-04-10T19:44:17.806Z,4.13
2023-04-10T19:46:44.707Z,5.20
2023-04-10T19:49:12.391Z,3.83
2023-04-10T19:51:39.151Z,3.63
2023-04-10T19:54:06.142Z,3.20
2023-04-10T19:56:35.449Z,4.73
2023-04-10T19:59:02.549Z,2.93
2023-04-10T20:01:30.270Z,2.63
2023-04-10T20:03:58.655Z,3.63
2023-04-10T20:06:27.584Z,4.40
2023-04-10T20:08:56.728Z,4.40
2023-04-10T20:11:31.188Z,4.27
2023-04-10T20:14:00.107Z,7.90
2023-04-10T20:16:27.964Z,5.13
2023-04-10T20:18:56.147Z,2.70
2023-04-10T20:21:23.752Z,2.60
2023-04-10T20:23:52.127Z,2.23
2023-04-10T20:26:22.655Z,2.07
2023-04-10T20:28:49.652Z,2.70
2023-04-10T20:31:16.480Z,2.60
2023-04-10T20:33:43.236Z,2.90
2023-04-10T20:36:10.446Z,2.37
2023-04-10T20:38:37.213Z,3.03
2023-04-10T20:41:04.061Z,4.63
2023-04-10T20:43:31.494Z,2.40
2023-04-10T20:46:09.101Z,2.20
2023-04-10T20:48:37.553Z,1.40
2023-04-10T20:51:07.423Z,2.73
2023-04-10T20:53:34.246Z,1.50
2023-04-10T20:56:01.511Z,3.00
2023-04-10T20:58:29.343Z,2.67
2023-04-10T21:00:56.767Z,2.33
2023-04-10T21:03:23.939Z,2.40
2023-04-10T21:05:53.560Z,1.70
2023-04-10T21:08:20.835Z,2.80
2023-04-10T21:10:47.707Z,7.40
2023-04-10T21:13:15.178Z,1.37
2023-04-10T21:15:44.946Z,1.60
2023-04-10T21:18:12.297Z,2.93
2023-04-10T21:20:39.170Z,1.80
2023-04-10T21:23:06.083Z,1.33
2023-04-10T21:25:33.685Z,2.10
2023-04-10T21:28:01.744Z,6.20
2023-04-10T21:30:29.583Z,4.07
2023-04-10T21:32:56.439Z,2.00
2023-04-10T21:35:24.738Z,3.37
2023-04-10T21:37:57.680Z,1.53
2023-04-10T21:40:26.183Z,1.00
2023-04-10T21:42:54.792Z,2.63
2023-04-10T21:45:22.812Z,4.20
2023-04-10T21:47:49.667Z,0.87
2023-04-10T21:50:16.454Z,1.43
2023-04-10T21:52:43.248Z,2.00
2023-04-10T21:55:10.491Z,1.40
2023-04-10T21:57:37.261Z,0.80
2023-04-10T22:00:04.585Z,3.80
2023-04-10T22:02:31.341Z,2.60
2023-04-10T22:04:58.095Z,1.07
2023-04-10T22:07:24.863Z,0.87
2023-04-10T22:09:51.594Z,0.90
2023-04-10T22:12:18.398Z,2.00
2023-04-10T22:14:46.290Z,0.60
2023-04-10T22:17:13.152Z,1.83
2023-04-10T22:19:39.978Z,2.20
2023-04-10T22:22:06.697Z,1.77
2023-04-10T22:24:35.222Z,0.53
2023-04-10T22:27:02.095Z,3.77
2023-04-10T22:29:28.829Z,1.73
2023-04-10T22:31:56.079Z,0.83
2023-04-10T22:34:22.979Z,2.00
2023-04-10T22:36:52.038Z,0.70
2023-04-10T22:39:18.927Z,1.23
2023-04-10T22:41:45.692Z,0.70
2023-04-10T22:44:12.830Z,1.20
2023-04-10T22:46:39.679Z,0.80
2023-04-10T22:49:07.118Z,2.03
2023-04-10T22:51:34.024Z,1.57
2023-04-10T22:54:00.812Z,0.93
2023-04-10T22:56:29.324Z,0.93
2023-04-10T22:58:56.248Z,0.87
2023-04-10T23:01:23.387Z,1.67
2023-04-10T23:03:53.557Z,1.10
2023-04-10T23:06:20.689Z,1.37
2023-04-10T23:08:47.428Z,1.47
2023-04-10T23:11:14.378Z,0.97
2023-04-10T23:13:43.022Z,0.97
2023-04-10T23:16:10.250Z,0.70
2023-04-10T23:18:37.596Z,1.33
2023-04-10T23:21:07.012Z,1.43
2023-04-10T23:23:33.874Z,5.17
2023-04-10T23:26:01.108Z,1.97
2023-04-10T23:28:28.483Z,1.10
2023-04-10T23:30:55.335Z,2.30
2023-04-10T23:33:22.311Z,1.87
2023-04-10T23:35:49.175Z,1.33
2023-04-10T23:38:15.986Z,1.00
2023-04-10T23:40:42.736Z,5.00
2023-04-10T23:43:09.478Z,2.73
2023-04-10T23:45:36.325Z,1.23
2023-04-10T23:48:03.155Z,2.37
2023-04-10T23:50:29.952Z,1.67
2023-04-10T23:52:56.831Z,1.17
2023-04-10T23:55:23.888Z,1.67
2023-04-10T23:57:50.657Z,3.90
